sensor_id;sensor_type;location;lat;lon;timestamp;temperature;humidity
4673;DHT22;61885;53.560;9.940;2023-05-02T00:00:39;10.90;19.70
4673;DHT22;61885;53.560;9.940;2023-05-02T00:03:11;10.90;22.40
4673;DHT22;61885;53.560;9.940;2023-05-02T00:05:42;10.90;26.00
4673;DHT22;61885;53.560;9.940;2023-05-02T00:08:12;10.90;30.30
4673;DHT22;61885;53.560;9.940;2023-05-02T00:10:42;10.90;33.10
4673;DHT22;61885;53.560;9.940;2023-05-02T00:13:14;10.90;36.20
4673;DHT22;61885;53.560;9.940;2023-05-02T00:15:43;10.90;38.40
4673;DHT22;61885;53.560;9.940;2023-05-02T00:18:13;10.90;39.50
4673;DHT22;61885;53.560;9.940;2023-05-02T00:20:43;11.00;41.90
4673;DHT22;61885;53.560;9.940;2023-05-02T00:23:12;11.00;46.70
4673;DHT22;61885;53.560;9.940;2023-05-02T00:25:45;11.00;48.70
4673;DHT22;61885;53.560;9.940;2023-05-02T00:28:17;11.00;52.90
4673;DHT22;61885;53.560;9.940;2023-05-02T00:30:47;11.10;54.90
4673;DHT22;61885;53.560;9.940;2023-05-02T00:33:16;11.10;56.70
4673;DHT22;61885;53.560;9.940;2023-05-02T00:35:46;11.00;66.50
4673;DHT22;61885;53.560;9.940;2023-05-02T00:38:17;10.90;82.40
4673;DHT22;61885;53.560;9.940;2023-05-02T00:40:47;10.90;96.30
4673;DHT22;61885;53.560;9.940;2023-05-02T00:43:20;10.90;99.90
4673;DHT22;61885;53.560;9.940;2023-05-02T00:45:49;10.90;99.90
4673;DHT22;61885;53.560;9.940;2023-05-02T00:48:19;10.90;99.90
4673;DHT22;61885;53.560;9.940;2023-05-02T00:50:48;11.00;99.90
4673;DHT22;61885;53.560;9.940;2023-05-02T00:53:18;11.00;99.90
4673;DHT22;61885;53.560;9.940;2023-05-02T00:55:51;11.00;99.90
4673;DHT22;61885;53.560;9.940;2023-05-02T00:58:23;11.00;99.90
4673;DHT22;61885;53.560;9.940;2023-05-02T01:01:02;11.00;99.90
4673;DHT22;61885;53.560;9.940;2023-05-02T01:03:40;11.10;99.90
4673;DHT22;61885;53.560;9.940;2023-05-02T01:06:27;11.10;99.90
4673;DHT22;61885;53.560;9.940;2023-05-02T01:09:08;11.10;99.90
4673;DHT22;61885;53.560;9.940;2023-05-02T01:11:48;11.10;99.90
4673;DHT22;61885;53.560;9.940;2023-05-02T01:14:26;10.90;99.90
4673;DHT22;61885;53.560;9.940;2023-05-02T01:16:58;10.90;99.90
4673;DHT22;61885;53.560;9.940;2023-05-02T01:19:34;10.80;99.90
4673;DHT22;61885;53.560;9.940;2023-05-02T01:22:07;10.70;99.90
4673;DHT22;61885;53.560;9.940;2023-05-02T01:27:33;10.60;99.90
4673;DHT22;61885;53.560;9.940;2023-05-02T01:30:09;10.60;99.90
4673;DHT22;61885;53.560;9.940;2023-05-02T01:32:44;10.50;99.90
4673;DHT22;61885;53.560;9.940;2023-05-02T01:35:15;10.50;99.90
4673;DHT22;61885;53.560;9.940;2023-05-02T01:37:46;10.50;99.90
4673;DHT22;61885;53.560;9.940;2023-05-02T01:40:19;10.50;99.90
4673;DHT22;61885;53.560;9.940;2023-05-02T01:42:51;10.40;99.90
4673;DHT22;61885;53.560;9.940;2023-05-02T01:45:27;10.40;99.90
4673;DHT22;61885;53.560;9.940;2023-05-02T01:47:57;10.30;99.90
4673;DHT22;61885;53.560;9.940;2023-05-02T01:50:29;10.20;99.90
4673;DHT22;61885;53.560;9.940;2023-05-02T01:52:59;10.20;99.90
4673;DHT22;61885;53.560;9.940;2023-05-02T01:55:32;10.20;99.90
4673;DHT22;61885;53.560;9.940;2023-05-02T01:58:05;10.30;99.90
4673;DHT22;61885;53.560;9.940;2023-05-02T02:00:39;10.30;99.90
4673;DHT22;61885;53.560;9.940;2023-05-02T02:03:12;10.20;99.90
4673;DHT22;61885;53.560;9.940;2023-05-02T02:05:42;10.30;99.90
4673;DHT22;61885;53.560;9.940;2023-05-02T02:08:13;10.30;99.90
4673;DHT22;61885;53.560;9.940;2023-05-02T02:10:45;10.20;99.90
4673;DHT22;61885;53.560;9.940;2023-05-02T02:13:23;10.20;99.90
4673;DHT22;61885;53.560;9.940;2023-05-02T02:16:00;10.20;99.90
4673;DHT22;61885;53.560;9.940;2023-05-02T02:18:35;10.20;99.90
4673;DHT22;61885;53.560;9.940;2023-05-02T02:21:08;10.30;99.90
4673;DHT22;61885;53.560;9.940;2023-05-02T02:23:39;10.20;99.90
4673;DHT22;61885;53.560;9.940;2023-05-02T02:26:11;10.10;99.90
4673;DHT22;61885;53.560;9.940;2023-05-02T02:28:42;10.10;99.90
4673;DHT22;61885;53.560;9.940;2023-05-02T02:31:15;10.00;99.90
4673;DHT22;61885;53.560;9.940;2023-05-02T02:33:44;10.00;99.90
4673;DHT22;61885;53.560;9.940;2023-05-02T02:36:18;9.90;99.90
4673;DHT22;61885;53.560;9.940;2023-05-02T02:38:53;9.90;99.90
4673;DHT22;61885;53.560;9.940;2023-05-02T02:41:29;9.90;99.90
4673;DHT22;61885;53.560;9.940;2023-05-02T02:44:08;9.70;99.90
4673;DHT22;61885;53.560;9.940;2023-05-02T02:46:47;9.60;99.90
4673;DHT22;61885;53.560;9.940;2023-05-02T02:49:28;9.50;99.90
4673;DHT22;61885;53.560;9.940;2023-05-02T02:52:05;9.30;99.90
4673;DHT22;61885;53.560;9.940;2023-05-02T02:54:44;9.20;99.90
4673;DHT22;61885;53.560;9.940;2023-05-02T02:57:17;9.10;99.90
4673;DHT22;61885;53.560;9.940;2023-05-02T02:59:53;9.10;99.90
4673;DHT22;61885;53.560;9.940;2023-05-02T03:02:31;9.20;99.90
4673;DHT22;61885;53.560;9.940;2023-05-02T03:05:02;9.10;99.90
4673;DHT22;61885;53.560;9.940;2023-05-02T03:07:35;9.00;99.90
4673;DHT22;61885;53.560;9.940;2023-05-02T03:10:06;8.90;99.90
4673;DHT22;61885;53.560;9.940;2023-05-02T03:12:37;8.80;99.90
4673;DHT22;61885;53.560;9.940;2023-05-02T03:15:21;8.80;99.90
4673;DHT22;61885;53.560;9.940;2023-05-02T03:17:56;8.60;99.90
4673;DHT22;61885;53.560;9.940;2023-05-02T03:20:25;8.50;99.90
4673;DHT22;61885;53.560;9.940;2023-05-02T03:22:55;8.40;99.90
4673;DHT22;61885;53.560;9.940;2023-05-02T03:25:25;8.40;99.90
4673;DHT22;61885;53.560;9.940;2023-05-02T03:27:56;8.40;99.90
4673;DHT22;61885;53.560;9.940;2023-05-02T03:30:26;8.30;99.90
4673;DHT22;61885;53.560;9.940;2023-05-02T03:32:58;8.10;99.90
4673;DHT22;61885;53.560;9.940;2023-05-02T03:35:31;8.00;99.90
4673;DHT22;61885;53.560;9.940;2023-05-02T03:38:03;8.00;99.90
4673;DHT22;61885;53.560;9.940;2023-05-02T03:40:32;8.00;99.90
4673;DHT22;61885;53.560;9.940;2023-05-02T03:43:02;7.90;99.90
4673;DHT22;61885;53.560;9.940;2023-05-02T03:45:32;7.90;99.90
4673;DHT22;61885;53.560;9.940;2023-05-02T03:48:09;7.90;99.90
4673;DHT22;61885;53.560;9.940;2023-05-02T03:50:39;7.90;99.90
4673;DHT22;61885;53.560;9.940;2023-05-02T03:53:10;7.80;99.90
4673;DHT22;61885;53.560;9.940;2023-05-02T03:55:42;7.70;99.90
4673;DHT22;61885;53.560;9.940;2023-05-02T03:58:12;7.70;99.90
4673;DHT22;61885;53.560;9.940;2023-05-02T04:00:44;7.60;99.90
4673;DHT22;61885;53.560;9.940;2023-05-02T04:03:17;7.60;99.90
4673;DHT22;61885;53.560;9.940;2023-05-02T04:05:47;7.60;99.90
4673;DHT22;61885;53.560;9.940;2023-05-02T04:08:17;7.60;99.90
4673;DHT22;61885;53.560;9.940;2023-05-02T04:10:49;7.60;99.90
4673;DHT22;61885;53.560;9.940;2023-05-02T04:13:19;7.60;99.90
4673;DHT22;61885;53.560;9.940;2023-05-02T04:15:49;7.60;99.90
4673;DHT22;61885;53.560;9.940;2023-05-02T04:18:21;7.60;99.90
4673;DHT22;61885;53.560;9.940;2023-05-02T04:20:50;7.60;99.90
4673;DHT22;61885;53.560;9.940;2023-05-02T04:23:20;7.60;99.90
4673;DHT22;61885;53.560;9.940;2023-05-02T04:25:59;7.50;99.90
4673;DHT22;61885;53.560;9.940;2023-05-02T04:28:29;7.60;99.90
4673;DHT22;61885;53.560;9.940;2023-05-02T04:30:58;7.60;99.90
4673;DHT22;61885;53.560;9.940;2023-05-02T04:33:32;7.60;99.90
4673;DHT22;61885;53.560;9.940;2023-05-02T04:36:04;7.50;99.90
4673;DHT22;61885;53.560;9.940;2023-05-02T04:38:33;7.60;99.60
4673;DHT22;61885;53.560;9.940;2023-05-02T04:41:04;7.50;97.40
4673;DHT22;61885;53.560;9.940;2023-05-02T04:43:33;7.50;96.60
4673;DHT22;61885;53.560;9.940;2023-05-02T04:46:03;7.40;96.10
4673;DHT22;61885;53.560;9.940;2023-05-02T04:48:39;7.50;94.80
4673;DHT22;61885;53.560;9.940;2023-05-02T04:51:09;7.50;95.60
4673;DHT22;61885;53.560;9.940;2023-05-02T04:53:38;7.50;95.30
4673;DHT22;61885;53.560;9.940;2023-05-02T04:56:08;7.50;94.80
4673;DHT22;61885;53.560;9.940;2023-05-02T04:58:58;7.70;93.90
4673;DHT22;61885;53.560;9.940;2023-05-02T05:01:27;7.70;91.50
4673;DHT22;61885;53.560;9.940;2023-05-02T05:04:02;7.70;91.80
4673;DHT22;61885;53.560;9.940;2023-05-02T05:06:34;7.70;92.80
4673;DHT22;61885;53.560;9.940;2023-05-02T05:09:06;7.70;92.40
4673;DHT22;61885;53.560;9.940;2023-05-02T05:11:35;7.70;91.60
4673;DHT22;61885;53.560;9.940;2023-05-02T05:14:05;7.70;91.60
4673;DHT22;61885;53.560;9.940;2023-05-02T05:16:36;7.60;91.00
4673;DHT22;61885;53.560;9.940;2023-05-02T05:19:08;7.50;90.30
4673;DHT22;61885;53.560;9.940;2023-05-02T05:21:38;7.30;84.00
4673;DHT22;61885;53.560;9.940;2023-05-02T05:24:07;7.30;81.30
4673;DHT22;61885;53.560;9.940;2023-05-02T05:26:37;7.30;79.80
4673;DHT22;61885;53.560;9.940;2023-05-02T05:29:07;7.30;78.00
4673;DHT22;61885;53.560;9.940;2023-05-02T05:31:43;7.30;76.00
4673;DHT22;61885;53.560;9.940;2023-05-02T05:34:16;7.30;72.10
4673;DHT22;61885;53.560;9.940;2023-05-02T05:36:46;7.30;73.10
4673;DHT22;61885;53.560;9.940;2023-05-02T05:39:19;7.30;73.10
4673;DHT22;61885;53.560;9.940;2023-05-02T05:41:52;7.40;72.50
4673;DHT22;61885;53.560;9.940;2023-05-02T05:44:23;7.40;71.00
4673;DHT22;61885;53.560;9.940;2023-05-02T05:46:53;7.40;73.20
4673;DHT22;61885;53.560;9.940;2023-05-02T05:49:25;7.50;72.30
4673;DHT22;61885;53.560;9.940;2023-05-02T05:51:58;7.40;73.40
4673;DHT22;61885;53.560;9.940;2023-05-02T05:54:33;7.40;65.60
4673;DHT22;61885;53.560;9.940;2023-05-02T05:57:03;7.40;62.60
4673;DHT22;61885;53.560;9.940;2023-05-02T05:59:34;7.30;60.00
4673;DHT22;61885;53.560;9.940;2023-05-02T06:02:08;7.30;58.70
4673;DHT22;61885;53.560;9.940;2023-05-02T06:04:40;7.30;52.40
4673;DHT22;61885;53.560;9.940;2023-05-02T06:07:16;7.30;41.00
4673;DHT22;61885;53.560;9.940;2023-05-02T06:09:45;7.30;28.30
4673;DHT22;61885;53.560;9.940;2023-05-02T06:12:15;7.30;20.30
4673;DHT22;61885;53.560;9.940;2023-05-02T06:14:44;7.30;15.90
4673;DHT22;61885;53.560;9.940;2023-05-02T06:17:16;7.30;3.80
4673;DHT22;61885;53.560;9.940;2023-05-02T06:19:48;7.30;1.00
4673;DHT22;61885;53.560;9.940;2023-05-02T06:22:18;7.40;1.00
4673;DHT22;61885;53.560;9.940;2023-05-02T06:24:48;7.40;1.00
4673;DHT22;61885;53.560;9.940;2023-05-02T06:27:17;7.50;1.00
4673;DHT22;61885;53.560;9.940;2023-05-02T06:29:50;7.50;1.00
4673;DHT22;61885;53.560;9.940;2023-05-02T06:32:20;7.40;1.00
4673;DHT22;61885;53.560;9.940;2023-05-02T06:34:52;7.50;1.00
4673;DHT22;61885;53.560;9.940;2023-05-02T06:37:22;7.50;1.00
4673;DHT22;61885;53.560;9.940;2023-05-02T06:39:52;7.60;1.00
4673;DHT22;61885;53.560;9.940;2023-05-02T06:42:23;7.60;1.00
4673;DHT22;61885;53.560;9.940;2023-05-02T06:44:52;7.50;1.00
4673;DHT22;61885;53.560;9.940;2023-05-02T06:47:22;7.60;1.00
4673;DHT22;61885;53.560;9.940;2023-05-02T06:49:57;7.60;1.00
4673;DHT22;61885;53.560;9.940;2023-05-02T06:52:26;7.70;1.00
4673;DHT22;61885;53.560;9.940;2023-05-02T06:54:55;7.60;1.00
4673;DHT22;61885;53.560;9.940;2023-05-02T06:57:25;7.50;1.00
4673;DHT22;61885;53.560;9.940;2023-05-02T06:59:54;7.50;1.00
4673;DHT22;61885;53.560;9.940;2023-05-02T07:02:24;7.60;1.00
4673;DHT22;61885;53.560;9.940;2023-05-02T07:04:58;7.50;1.00
4673;DHT22;61885;53.560;9.940;2023-05-02T07:07:27;7.50;1.00
4673;DHT22;61885;53.560;9.940;2023-05-02T07:09:57;7.50;1.00
4673;DHT22;61885;53.560;9.940;2023-05-02T07:12:26;7.60;1.00
4673;DHT22;61885;53.560;9.940;2023-05-02T07:14:56;7.60;1.00
4673;DHT22;61885;53.560;9.940;2023-05-02T07:17:27;7.70;1.00
4673;DHT22;61885;53.560;9.940;2023-05-02T07:19:59;7.70;1.00
4673;DHT22;61885;53.560;9.940;2023-05-02T07:22:33;7.70;1.00
4673;DHT22;61885;53.560;9.940;2023-05-02T07:25:08;7.90;1.00
4673;DHT22;61885;53.560;9.940;2023-05-02T07:27:43;7.80;1.00
4673;DHT22;61885;53.560;9.940;2023-05-02T07:30:12;7.80;1.00
4673;DHT22;61885;53.560;9.940;2023-05-02T07:32:42;7.90;1.00
4673;DHT22;61885;53.560;9.940;2023-05-02T07:35:14;8.00;1.00
4673;DHT22;61885;53.560;9.940;2023-05-02T07:37:44;8.00;1.00
4673;DHT22;61885;53.560;9.940;2023-05-02T07:40:14;7.80;1.00
4673;DHT22;61885;53.560;9.940;2023-05-02T07:42:43;7.90;1.00
4673;DHT22;61885;53.560;9.940;2023-05-02T07:45:13;7.80;1.00
4673;DHT22;61885;53.560;9.940;2023-05-02T07:47:44;7.90;1.00
4673;DHT22;61885;53.560;9.940;2023-05-02T07:50:19;7.90;1.00
4673;DHT22;61885;53.560;9.940;2023-05-02T07:52:49;8.00;1.00
4673;DHT22;61885;53.560;9.940;2023-05-02T07:55:19;8.00;1.00
4673;DHT22;61885;53.560;9.940;2023-05-02T07:57:48;7.70;1.00
4673;DHT22;61885;53.560;9.940;2023-05-02T08:00:18;7.80;1.00
4673;DHT22;61885;53.560;9.940;2023-05-02T08:02:48;8.00;1.00
4673;DHT22;61885;53.560;9.940;2023-05-02T08:05:21;8.10;1.00
4673;DHT22;61885;53.560;9.940;2023-05-02T08:07:51;8.00;1.00
4673;DHT22;61885;53.560;9.940;2023-05-02T08:10:22;7.80;1.00
4673;DHT22;61885;53.560;9.940;2023-05-02T08:12:54;7.90;1.00
4673;DHT22;61885;53.560;9.940;2023-05-02T08:15:24;8.00;1.00
4673;DHT22;61885;53.560;9.940;2023-05-02T08:17:54;8.10;1.00
4673;DHT22;61885;53.560;9.940;2023-05-02T08:20:28;8.20;1.00
4673;DHT22;61885;53.560;9.940;2023-05-02T08:22:58;8.50;1.00
4673;DHT22;61885;53.560;9.940;2023-05-02T08:25:28;8.50;1.00
4673;DHT22;61885;53.560;9.940;2023-05-02T08:27:59;8.40;1.00
4673;DHT22;61885;53.560;9.940;2023-05-02T08:30:29;8.50;1.00
4673;DHT22;61885;53.560;9.940;2023-05-02T08:32:59;8.60;1.00
4673;DHT22;61885;53.560;9.940;2023-05-02T08:35:32;8.40;1.00
4673;DHT22;61885;53.560;9.940;2023-05-02T08:38:06;8.40;1.00
4673;DHT22;61885;53.560;9.940;2023-05-02T08:40:37;8.30;1.00
4673;DHT22;61885;53.560;9.940;2023-05-02T08:43:07;8.50;1.00
4673;DHT22;61885;53.560;9.940;2023-05-02T08:45:40;8.60;1.00
4673;DHT22;61885;53.560;9.940;2023-05-02T08:48:11;8.60;1.00
4673;DHT22;61885;53.560;9.940;2023-05-02T08:50:46;8.60;1.00
4673;DHT22;61885;53.560;9.940;2023-05-02T08:53:20;8.50;1.00
4673;DHT22;61885;53.560;9.940;2023-05-02T08:55:54;8.60;1.00
4673;DHT22;61885;53.560;9.940;2023-05-02T08:58:25;8.70;1.00
4673;DHT22;61885;53.560;9.940;2023-05-02T09:01:01;8.60;1.00
4673;DHT22;61885;53.560;9.940;2023-05-02T09:03:33;8.70;1.00
4673;DHT22;61885;53.560;9.940;2023-05-02T09:06:10;9.00;1.00
4673;DHT22;61885;53.560;9.940;2023-05-02T09:08:42;9.10;1.00
4673;DHT22;61885;53.560;9.940;2023-05-02T09:11:17;9.20;1.00
4673;DHT22;61885;53.560;9.940;2023-05-02T09:13:49;9.10;1.00
4673;DHT22;61885;53.560;9.940;2023-05-02T09:16:21;9.10;1.00
4673;DHT22;61885;53.560;9.940;2023-05-02T09:18:52;9.20;1.00
4673;DHT22;61885;53.560;9.940;2023-05-02T09:21:26;9.40;1.00
4673;DHT22;61885;53.560;9.940;2023-05-02T09:24:15;9.60;1.00
4673;DHT22;61885;53.560;9.940;2023-05-02T09:26:56;9.70;1.00
4673;DHT22;61885;53.560;9.940;2023-05-02T09:29:29;9.60;1.00
4673;DHT22;61885;53.560;9.940;2023-05-02T09:32:01;9.60;1.00
4673;DHT22;61885;53.560;9.940;2023-05-02T09:34:32;9.80;1.00
4673;DHT22;61885;53.560;9.940;2023-05-02T09:37:06;10.00;1.00
4673;DHT22;61885;53.560;9.940;2023-05-02T09:39:38;9.60;1.00
4673;DHT22;61885;53.560;9.940;2023-05-02T09:42:07;9.50;1.00
4673;DHT22;61885;53.560;9.940;2023-05-02T09:44:38;9.50;1.00
4673;DHT22;61885;53.560;9.940;2023-05-02T09:47:09;9.40;1.00
4673;DHT22;61885;53.560;9.940;2023-05-02T09:49:41;9.50;1.00
4673;DHT22;61885;53.560;9.940;2023-05-02T09:52:15;9.80;1.00
4673;DHT22;61885;53.560;9.940;2023-05-02T09:54:46;10.30;1.00
4673;DHT22;61885;53.560;9.940;2023-05-02T09:57:16;10.50;1.00
4673;DHT22;61885;53.560;9.940;2023-05-02T09:59:55;10.50;1.00
4673;DHT22;61885;53.560;9.940;2023-05-02T10:02:25;10.30;1.00
4673;DHT22;61885;53.560;9.940;2023-05-02T10:05:00;10.20;1.00
4673;DHT22;61885;53.560;9.940;2023-05-02T10:07:35;10.20;1.00
4673;DHT22;61885;53.560;9.940;2023-05-02T10:10:06;10.10;1.00
4673;DHT22;61885;53.560;9.940;2023-05-02T10:12:37;10.20;1.00
4673;DHT22;61885;53.560;9.940;2023-05-02T10:15:09;10.10;1.00
4673;DHT22;61885;53.560;9.940;2023-05-02T10:17:43;9.70;1.00
4673;DHT22;61885;53.560;9.940;2023-05-02T10:20:20;9.90;1.00
4673;DHT22;61885;53.560;9.940;2023-05-02T10:22:59;10.10;1.00
4673;DHT22;61885;53.560;9.940;2023-05-02T10:25:32;10.00;1.00
4673;DHT22;61885;53.560;9.940;2023-05-02T10:28:03;10.20;1.00
4673;DHT22;61885;53.560;9.940;2023-05-02T10:30:34;10.20;1.00
4673;DHT22;61885;53.560;9.940;2023-05-02T10:33:06;10.10;1.00
4673;DHT22;61885;53.560;9.940;2023-05-02T10:35:37;10.00;1.00
4673;DHT22;61885;53.560;9.940;2023-05-02T10:38:11;10.20;1.00
4673;DHT22;61885;53.560;9.940;2023-05-02T10:40:50;10.30;1.00
4673;DHT22;61885;53.560;9.940;2023-05-02T10:43:24;10.30;1.00
4673;DHT22;61885;53.560;9.940;2023-05-02T10:45:55;10.20;1.00
4673;DHT22;61885;53.560;9.940;2023-05-02T10:48:26;10.10;1.00
4673;DHT22;61885;53.560;9.940;2023-05-02T10:50:57;10.10;1.00
4673;DHT22;61885;53.560;9.940;2023-05-02T10:53:32;10.20;1.00
4673;DHT22;61885;53.560;9.940;2023-05-02T10:56:22;10.50;1.00
4673;DHT22;61885;53.560;9.940;2023-05-02T10:59:30;10.70;1.00
4673;DHT22;61885;53.560;9.940;2023-05-02T11:02:00;10.70;1.00
4673;DHT22;61885;53.560;9.940;2023-05-02T11:04:59;10.70;1.00
4673;DHT22;61885;53.560;9.940;2023-05-02T11:07:32;10.60;1.00
4673;DHT22;61885;53.560;9.940;2023-05-02T11:10:27;10.40;1.00
4673;DHT22;61885;53.560;9.940;2023-05-02T11:12:58;10.50;1.00
4673;DHT22;61885;53.560;9.940;2023-05-02T11:15:59;10.50;1.00
4673;DHT22;61885;53.560;9.940;2023-05-02T11:18:56;10.60;1.00
4673;DHT22;61885;53.560;9.940;2023-05-02T11:21:34;10.40;1.00
4673;DHT22;61885;53.560;9.940;2023-05-02T11:30:05;10.10;1.00
4673;DHT22;61885;53.560;9.940;2023-05-02T11:35:41;10.20;1.00
4673;DHT22;61885;53.560;9.940;2023-05-02T11:38:14;10.40;1.00
4673;DHT22;61885;53.560;9.940;2023-05-02T11:40:57;10.60;1.00
4673;DHT22;61885;53.560;9.940;2023-05-02T11:43:36;10.90;1.00
4673;DHT22;61885;53.560;9.940;2023-05-02T11:46:05;11.10;1.00
4673;DHT22;61885;53.560;9.940;2023-05-02T11:48:37;11.00;1.00
4673;DHT22;61885;53.560;9.940;2023-05-02T11:51:09;11.10;1.00
4673;DHT22;61885;53.560;9.940;2023-05-02T11:53:40;11.30;1.00
4673;DHT22;61885;53.560;9.940;2023-05-02T11:56:09;11.10;1.00
4673;DHT22;61885;53.560;9.940;2023-05-02T11:58:39;11.50;1.00
4673;DHT22;61885;53.560;9.940;2023-05-02T12:01:13;11.50;1.00
4673;DHT22;61885;53.560;9.940;2023-05-02T12:03:43;11.60;1.00
4673;DHT22;61885;53.560;9.940;2023-05-02T12:06:16;11.80;1.00
4673;DHT22;61885;53.560;9.940;2023-05-02T12:08:46;12.10;1.00
4673;DHT22;61885;53.560;9.940;2023-05-02T12:11:22;11.90;1.00
4673;DHT22;61885;53.560;9.940;2023-05-02T12:13:54;11.50;1.00
4673;DHT22;61885;53.560;9.940;2023-05-02T12:16:23;11.30;1.00
4673;DHT22;61885;53.560;9.940;2023-05-02T12:18:53;11.30;1.00
4673;DHT22;61885;53.560;9.940;2023-05-02T12:21:28;11.90;1.00
4673;DHT22;61885;53.560;9.940;2023-05-02T12:23:59;12.70;1.00
4673;DHT22;61885;53.560;9.940;2023-05-02T12:26:29;12.90;1.00
4673;DHT22;61885;53.560;9.940;2023-05-02T12:29:01;13.10;1.00
4673;DHT22;61885;53.560;9.940;2023-05-02T12:31:33;12.70;1.00
4673;DHT22;61885;53.560;9.940;2023-05-02T12:34:03;12.00;1.00
4673;DHT22;61885;53.560;9.940;2023-05-02T12:36:43;11.50;1.00
4673;DHT22;61885;53.560;9.940;2023-05-02T12:39:13;11.30;1.00
4673;DHT22;61885;53.560;9.940;2023-05-02T12:41:43;11.60;1.00
4673;DHT22;61885;53.560;9.940;2023-05-02T12:44:13;11.30;1.00
4673;DHT22;61885;53.560;9.940;2023-05-02T12:46:57;11.30;1.00
4673;DHT22;61885;53.560;9.940;2023-05-02T12:49:28;11.60;1.00
4673;DHT22;61885;53.560;9.940;2023-05-02T12:52:00;11.10;1.00
4673;DHT22;61885;53.560;9.940;2023-05-02T12:54:32;11.00;1.00
4673;DHT22;61885;53.560;9.940;2023-05-02T12:57:01;11.00;1.00
4673;DHT22;61885;53.560;9.940;2023-05-02T12:59:33;11.20;1.00
4673;DHT22;61885;53.560;9.940;2023-05-02T13:02:03;11.00;1.00
4673;DHT22;61885;53.560;9.940;2023-05-02T13:04:35;11.00;1.00
4673;DHT22;61885;53.560;9.940;2023-05-02T13:07:07;10.80;1.00
4673;DHT22;61885;53.560;9.940;2023-05-02T13:09:37;10.70;1.00
4673;DHT22;61885;53.560;9.940;2023-05-02T13:12:07;10.70;1.00
4673;DHT22;61885;53.560;9.940;2023-05-02T13:14:36;10.50;1.00
4673;DHT22;61885;53.560;9.940;2023-05-02T13:17:06;10.50;1.00
4673;DHT22;61885;53.560;9.940;2023-05-02T13:19:36;10.30;1.00
4673;DHT22;61885;53.560;9.940;2023-05-02T13:22:10;10.20;1.00
4673;DHT22;61885;53.560;9.940;2023-05-02T13:24:39;10.30;1.00
4673;DHT22;61885;53.560;9.940;2023-05-02T13:27:09;10.60;1.00
4673;DHT22;61885;53.560;9.940;2023-05-02T13:29:44;10.60;1.00
4673;DHT22;61885;53.560;9.940;2023-05-02T13:32:15;10.80;1.00
4673;DHT22;61885;53.560;9.940;2023-05-02T13:34:45;11.00;1.00
4673;DHT22;61885;53.560;9.940;2023-05-02T13:37:19;10.70;1.00
4673;DHT22;61885;53.560;9.940;2023-05-02T13:39:49;10.50;1.00
4673;DHT22;61885;53.560;9.940;2023-05-02T13:42:23;10.30;1.00
4673;DHT22;61885;53.560;9.940;2023-05-02T13:44:53;10.30;1.00
4673;DHT22;61885;53.560;9.940;2023-05-02T13:47:22;10.30;1.00
4673;DHT22;61885;53.560;9.940;2023-05-02T13:49:57;10.10;1.00
4673;DHT22;61885;53.560;9.940;2023-05-02T13:52:32;10.00;1.00
4673;DHT22;61885;53.560;9.940;2023-05-02T13:55:12;10.00;1.00
4673;DHT22;61885;53.560;9.940;2023-05-02T13:57:45;10.00;1.00
4673;DHT22;61885;53.560;9.940;2023-05-02T14:00:20;10.10;1.00
4673;DHT22;61885;53.560;9.940;2023-05-02T14:02:50;10.00;1.00
4673;DHT22;61885;53.560;9.940;2023-05-02T14:05:20;9.80;1.00
4673;DHT22;61885;53.560;9.940;2023-05-02T14:07:52;9.70;1.00
4673;DHT22;61885;53.560;9.940;2023-05-02T14:10:24;9.60;1.00
4673;DHT22;61885;53.560;9.940;2023-05-02T14:12:54;9.70;1.00
4673;DHT22;61885;53.560;9.940;2023-05-02T14:15:24;9.80;1.00
4673;DHT22;61885;53.560;9.940;2023-05-02T14:17:54;10.00;1.00
4673;DHT22;61885;53.560;9.940;2023-05-02T14:20:25;10.20;1.00
4673;DHT22;61885;53.560;9.940;2023-05-02T14:22:59;10.50;1.00
4673;DHT22;61885;53.560;9.940;2023-05-02T14:25:43;10.60;1.00
4673;DHT22;61885;53.560;9.940;2023-05-02T14:28:12;11.10;1.00
4673;DHT22;61885;53.560;9.940;2023-05-02T14:30:41;11.00;1.00
4673;DHT22;61885;53.560;9.940;2023-05-02T14:33:12;10.90;1.00
4673;DHT22;61885;53.560;9.940;2023-05-02T14:35:45;10.80;1.00
4673;DHT22;61885;53.560;9.940;2023-05-02T14:38:18;10.80;1.00
4673;DHT22;61885;53.560;9.940;2023-05-02T14:40:48;10.90;1.00
4673;DHT22;61885;53.560;9.940;2023-05-02T14:43:18;11.00;1.00
4673;DHT22;61885;53.560;9.940;2023-05-02T14:45:50;11.40;1.00
4673;DHT22;61885;53.560;9.940;2023-05-02T14:48:19;11.10;1.00
4673;DHT22;61885;53.560;9.940;2023-05-02T14:50:55;10.80;1.00
4673;DHT22;61885;53.560;9.940;2023-05-02T14:53:29;10.60;1.00
4673;DHT22;61885;53.560;9.940;2023-05-02T14:56:10;10.20;1.00
4673;DHT22;61885;53.560;9.940;2023-05-02T14:58:44;10.10;1.00
4673;DHT22;61885;53.560;9.940;2023-05-02T15:01:17;9.90;1.00
4673;DHT22;61885;53.560;9.940;2023-05-02T15:03:47;10.20;1.00
4673;DHT22;61885;53.560;9.940;2023-05-02T15:06:20;10.10;1.00
4673;DHT22;61885;53.560;9.940;2023-05-02T15:08:54;10.20;1.00
4673;DHT22;61885;53.560;9.940;2023-05-02T15:11:23;10.30;1.00
4673;DHT22;61885;53.560;9.940;2023-05-02T15:13:55;10.30;1.00
4673;DHT22;61885;53.560;9.940;2023-05-02T15:16:24;10.20;1.00
4673;DHT22;61885;53.560;9.940;2023-05-02T15:18:55;10.30;1.00
4673;DHT22;61885;53.560;9.940;2023-05-02T15:21:27;10.30;1.00
4673;DHT22;61885;53.560;9.940;2023-05-02T15:24:03;10.40;1.00
4673;DHT22;61885;53.560;9.940;2023-05-02T15:26:33;10.70;1.00
4673;DHT22;61885;53.560;9.940;2023-05-02T15:29:04;10.70;1.00
4673;DHT22;61885;53.560;9.940;2023-05-02T15:31:34;10.30;1.00
4673;DHT22;61885;53.560;9.940;2023-05-02T15:34:14;10.00;1.00
4673;DHT22;61885;53.560;9.940;2023-05-02T15:36:46;10.00;1.00
4673;DHT22;61885;53.560;9.940;2023-05-02T15:39:20;10.30;1.00
4673;DHT22;61885;53.560;9.940;2023-05-02T15:41:51;10.20;1.00
4673;DHT22;61885;53.560;9.940;2023-05-02T15:44:21;10.40;1.00
4673;DHT22;61885;53.560;9.940;2023-05-02T15:46:51;10.20;1.00
4673;DHT22;61885;53.560;9.940;2023-05-02T15:49:21;10.10;1.00
4673;DHT22;61885;53.560;9.940;2023-05-02T15:51:57;9.90;1.00
4673;DHT22;61885;53.560;9.940;2023-05-02T15:54:31;10.20;1.00
4673;DHT22;61885;53.560;9.940;2023-05-02T15:57:01;10.20;1.00
4673;DHT22;61885;53.560;9.940;2023-05-02T15:59:33;10.10;1.00
4673;DHT22;61885;53.560;9.940;2023-05-02T16:02:02;10.20;1.00
4673;DHT22;61885;53.560;9.940;2023-05-02T16:04:32;10.30;1.00
4673;DHT22;61885;53.560;9.940;2023-05-02T16:07:01;10.10;1.00
4673;DHT22;61885;53.560;9.940;2023-05-02T16:09:37;10.20;1.00
4673;DHT22;61885;53.560;9.940;2023-05-02T16:12:08;10.20;1.00
4673;DHT22;61885;53.560;9.940;2023-05-02T16:14:37;10.20;1.00
4673;DHT22;61885;53.560;9.940;2023-05-02T16:17:07;10.00;1.00
4673;DHT22;61885;53.560;9.940;2023-05-02T16:19:36;10.00;1.00
4673;DHT22;61885;53.560;9.940;2023-05-02T16:22:09;10.20;1.00
4673;DHT22;61885;53.560;9.940;2023-05-02T16:24:41;10.00;1.00
4673;DHT22;61885;53.560;9.940;2023-05-02T16:27:13;10.00;1.00
4673;DHT22;61885;53.560;9.940;2023-05-02T16:29:44;9.90;1.00
4673;DHT22;61885;53.560;9.940;2023-05-02T16:32:14;10.00;1.00
4673;DHT22;61885;53.560;9.940;2023-05-02T16:34:45;10.50;1.00
4673;DHT22;61885;53.560;9.940;2023-05-02T16:37:15;10.50;1.00
4673;DHT22;61885;53.560;9.940;2023-05-02T16:39:47;11.10;1.00
4673;DHT22;61885;53.560;9.940;2023-05-02T16:42:17;10.50;1.00
4673;DHT22;61885;53.560;9.940;2023-05-02T16:44:48;10.60;1.00
4673;DHT22;61885;53.560;9.940;2023-05-02T16:47:19;10.20;1.00